Terminal Aerodrome Forecast
Issued by NWS Charleston, WV

Current Version | Previous Version | Text Only | Print | Product List | Glossary Off
Versions: 1 2 3 4 5 6 7 8 9 10 11 12 13 14 15 16 17 18 19 20 21 22

000
FTUS41 KRLX 242322
TAFPKB
TAF
KPKB 242322Z 2500/2524 VRB03KT P6SM FEW050
     FM250200 00000KT P6SM SKC
     FM250600 00000KT 4SM BR FEW001
     FM250800 00000KT 1/4SM FG OVC001
     FM251300 VRB03KT 3SM BR SCT003
     FM251400 02003KT P6SM SKC=

USA.gov is the U.S. government's official web portal to all federal, state and local government web resources and services.